Time;durP1;ratioP1;P1;durP2;ratioP2;P2;SDS_P1;SDS_P2;PMS_P1;PMS_P2;Temp;Humidity;BMP_temperature;BMP_pressure;BME280_temperature;BME280_humidity;BME280_pressure;Samples;Min_cycle;Max_cycle;Signal;HPM_P1;HPM_P2
2021/09/19 00:00:12;;;;;;;10.32;8.13;;;;;;;15.23;91.24;100075.25;5045062;28;20059;-65
2021/09/19 00:02:37;;;;;;;8.73;7.45;;;;;;;15.16;91.24;100075.06;5018252;28;20107;-64
2021/09/19 00:05:04;;;;;;;8.65;7.75;;;;;;;15.10;91.31;100077.63;5038966;28;20037;-65
2021/09/19 00:07:29;;;;;;;9.27;7.93;;;;;;;15.09;91.41;100075.94;5041933;28;20060;-65
2021/09/19 00:09:55;;;;;;;13.07;7.85;;;;;;;15.00;91.33;100077.78;5022200;28;20488;-65
2021/09/19 00:12:20;;;;;;;10.65;7.97;;;;;;;14.96;91.76;100075.59;5036479;28;20040;-65
2021/09/19 00:14:46;;;;;;;9.15;8.18;;;;;;;14.95;91.80;100088.25;5044778;28;20095;-64
2021/09/19 00:17:11;;;;;;;7.53;6.72;;;;;;;14.92;92.29;100096.69;5046532;28;20025;-65
2021/09/19 00:19:37;;;;;;;9.30;8.20;;;;;;;14.94;92.01;100085.72;5032781;28;20040;-65
2021/09/19 00:22:03;;;;;;;9.65;8.57;;;;;;;14.89;92.05;100086.22;5039566;28;20084;-64
2021/09/19 00:24:28;;;;;;;9.05;7.68;;;;;;;14.89;92.17;100083.53;5049764;28;20083;-64
2021/09/19 00:26:54;;;;;;;10.90;7.85;;;;;;;14.82;92.54;100073.56;5035617;28;20481;-65
2021/09/19 00:29:20;;;;;;;9.30;8.35;;;;;;;14.81;92.13;100079.97;5030060;28;20053;-65
2021/09/19 00:31:45;;;;;;;9.65;8.45;;;;;;;14.76;92.32;100082.31;5019903;28;20391;-63
2021/09/19 00:34:11;;;;;;;11.30;7.93;;;;;;;14.72;92.65;100091.78;5043103;28;20044;-62
2021/09/19 00:36:36;;;;;;;8.98;8.18;;;;;;;14.70;92.92;100093.81;5042249;28;20060;-62
2021/09/19 00:39:02;;;;;;;9.85;8.02;;;;;;;14.68;92.75;100096.69;5050171;28;20029;-62
2021/09/19 00:41:28;;;;;;;9.40;8.35;;;;;;;14.60;92.99;100080.44;5040320;28;20083;-63
2021/09/19 00:43:53;;;;;;;9.75;8.15;;;;;;;14.62;93.06;100094.63;5038395;28;20449;-62
2021/09/19 00:46:19;;;;;;;9.13;7.93;;;;;;;14.57;93.31;100088.03;5034599;28;20057;-64
2021/09/19 00:48:44;;;;;;;10.02;7.82;;;;;;;14.55;94.12;100090.06;5043131;28;20537;-65
2021/09/19 00:51:10;;;;;;;10.15;8.02;;;;;;;14.55;93.98;100080.13;5043512;28;20029;-62
2021/09/19 00:53:37;;;;;;;10.18;7.55;;;;;;;14.57;93.63;100080.78;5017461;28;20033;-61
2021/09/19 00:56:06;;;;;;;9.18;8.25;;;;;;;14.57;93.47;100088.03;5031328;28;20057;-61
2021/09/19 00:58:32;;;;;;;12.25;9.15;;;;;;;14.52;93.04;100072.34;5035432;28;20037;-62
2021/09/19 01:00:59;;;;;;;7.57;6.78;;;;;;;14.56;92.74;100080.94;5032725;28;20519;-65
2021/09/19 01:03:26;;;;;;;9.45;7.93;;;;;;;14.56;92.94;100078.25;5026328;28;20083;-65
2021/09/19 01:05:53;;;;;;;10.40;8.52;;;;;;;14.54;92.73;100091.06;5018352;28;20045;-65
2021/09/19 01:08:19;;;;;;;9.32;7.32;;;;;;;14.52;92.88;100093.09;5045627;28;20084;-65
2021/09/19 01:10:45;;;;;;;8.90;7.97;;;;;;;14.48;92.91;100080.94;5021484;28;20500;-65
2021/09/19 01:13:12;;;;;;;11.05;8.00;;;;;;;14.46;92.56;100075.69;5030016;28;20465;-65
2021/09/19 01:15:40;;;;;;;9.70;7.85;;;;;;;14.47;92.44;100076.53;5032233;28;20029;-65
2021/09/19 01:18:07;;;;;;;8.93;8.00;;;;;;;14.48;92.10;100079.06;5041045;28;20064;-65
2021/09/19 01:20:33;;;;;;;9.60;8.10;;;;;;;14.37;92.66;100073.13;5034009;28;20082;-65
2021/09/19 01:23:08;;;;;;;8.60;7.70;;;;;;;14.36;92.50;100068.75;5030583;28;20108;-65
2021/09/19 01:25:35;;;;;;;8.95;7.97;;;;;;;14.36;92.50;100083.09;5037294;28;20033;-66
2021/09/19 01:28:01;;;;;;;11.23;8.88;;;;;;;14.36;92.81;100088.50;5014039;28;20067;-65
2021/09/19 01:30:26;;;;;;;11.90;8.90;;;;;;;14.34;92.48;100087.81;5038159;28;20140;-65
2021/09/19 01:32:52;;;;;;;11.45;9.18;;;;;;;14.27;92.41;100072.44;5032276;28;20108;-65
2021/09/19 01:35:18;;;;;;;10.50;8.63;;;;;;;14.26;93.02;100092.34;5040360;28;20498;-65
2021/09/19 01:37:43;;;;;;;10.05;9.00;;;;;;;14.24;92.81;100081.72;5021525;28;20053;-65
2021/09/19 01:40:10;;;;;;;12.48;9.02;;;;;;;14.16;93.17;100081.66;5030544;28;20408;-65
2021/09/19 01:42:36;;;;;;;12.27;9.13;;;;;;;14.05;93.43;100070.28;5030354;28;20064;-65
2021/09/19 01:45:01;;;;;;;10.63;9.02;;;;;;;14.09;93.38;100080.59;5036432;28;20055;-65
2021/09/19 01:47:27;;;;;;;9.80;8.80;;;;;;;13.99;93.61;100077.19;5028147;28;20035;-65
2021/09/19 01:49:53;;;;;;;10.52;8.52;;;;;;;13.94;93.92;100076.00;5032306;28;20392;-66
2021/09/19 01:52:21;;;;;;;10.20;8.93;;;;;;;13.94;94.11;100084.06;5013055;28;20049;-63
2021/09/19 01:54:47;;;;;;;9.88;8.82;;;;;;;13.87;94.25;100077.66;5040957;28;20041;-63
2021/09/19 01:57:21;;;;;;;11.57;9.77;;;;;;;13.80;94.40;100076.59;5033165;28;20033;-62
2021/09/19 01:59:52;;;;;;;9.77;8.75;;;;;;;13.75;94.66;100074.38;5036936;28;20125;-63
2021/09/19 02:02:19;;;;;;;10.85;9.52;;;;;;;13.73;94.13;100070.19;5043494;28;20041;-62
2021/09/19 02:04:45;;;;;;;10.30;8.98;;;;;;;13.73;94.21;100077.25;5049929;28;20033;-63
2021/09/19 02:07:11;;;;;;;12.07;9.05;;;;;;;13.70;94.26;100069.47;5043655;28;20030;-63
2021/09/19 02:09:37;;;;;;;10.07;8.98;;;;;;;13.66;94.63;100075.34;5033859;28;20625;-63
2021/09/19 02:12:03;;;;;;;10.85;8.88;;;;;;;13.68;93.61;100076.88;5042234;28;20044;-66
2021/09/19 02:14:28;;;;;;;11.40;9.75;;;;;;;13.59;94.21;100080.53;5024216;28;20060;-65
2021/09/19 02:16:54;;;;;;;10.15;8.82;;;;;;;13.51;94.74;100077.78;5022841;28;20060;-65
2021/09/19 02:19:19;;;;;;;11.73;8.95;;;;;;;13.46;94.91;100077.44;5026281;28;20058;-66
2021/09/19 02:21:46;;;;;;;10.20;9.07;;;;;;;13.45;95.34;100073.03;5038862;28;20041;-66
2021/09/19 02:24:11;;;;;;;12.00;8.63;;;;;;;13.44;95.04;100075.88;5040592;28;20028;-65
2021/09/19 02:26:37;;;;;;;9.60;8.50;;;;;;;13.43;95.26;100085.84;5042736;28;20083;-66
2021/09/19 02:29:03;;;;;;;10.40;9.30;;;;;;;13.39;95.02;100068.28;5036777;28;20037;-66
2021/09/19 02:31:29;;;;;;;11.43;9.30;;;;;;;13.45;94.38;100080.28;5033618;28;20144;-66
2021/09/19 02:33:54;;;;;;;9.35;8.27;;;;;;;13.41;94.34;100068.13;5039689;28;20168;-66
2021/09/19 02:36:19;;;;;;;14.45;9.27;;;;;;;13.35;94.79;100069.59;5024077;28;20024;-66
2021/09/19 02:38:45;;;;;;;10.60;8.68;;;;;;;13.35;94.71;100074.16;5039517;28;20049;-66
2021/09/19 02:41:10;;;;;;;12.40;9.07;;;;;;;13.26;94.35;100067.03;5039694;28;20036;-64
2021/09/19 02:43:36;;;;;;;11.80;9.07;;;;;;;13.23;94.77;100067.34;5043170;28;20025;-64
2021/09/19 02:46:02;;;;;;;9.68;8.60;;;;;;;13.19;95.21;100061.41;5035355;28;20449;-66
2021/09/19 02:48:27;;;;;;;10.88;9.27;;;;;;;13.22;95.12;100058.41;5038276;28;20096;-65
2021/09/19 02:50:52;;;;;;;9.13;8.15;;;;;;;13.23;94.63;100064.63;5027806;28;20044;-64
2021/09/19 02:53:18;;;;;;;9.65;8.27;;;;;;;13.26;94.26;100062.47;5036185;28;20044;-62
2021/09/19 02:55:43;;;;;;;10.45;8.38;;;;;;;13.24;94.57;100060.94;5037822;28;20049;-64
2021/09/19 02:58:09;;;;;;;10.95;9.13;;;;;;;13.21;94.35;100061.25;5042093;28;20051;-65
2021/09/19 03:00:35;;;;;;;10.13;8.50;;;;;;;13.22;93.83;100062.97;5041034;28;20052;-65
2021/09/19 03:03:01;;;;;;;9.90;7.90;;;;;;;13.21;93.97;100062.09;5012735;28;20380;-65
2021/09/19 03:05:26;;;;;;;10.15;8.07;;;;;;;13.20;93.16;100064.97;5035911;28;20025;-65
2021/09/19 03:07:55;;;;;;;10.10;7.50;;;;;;;13.15;94.49;100067.25;5039540;28;20546;-64
2021/09/19 03:10:21;;;;;;;9.85;8.68;;;;;;;13.20;93.00;100070.34;5040797;28;20115;-65
2021/09/19 03:12:47;;;;;;;11.35;8.07;;;;;;;13.12;94.12;100063.03;5048661;28;20427;-65
2021/09/19 03:15:13;;;;;;;9.77;8.77;;;;;;;13.10;94.02;100065.03;5033576;28;20044;-61
2021/09/19 03:17:39;;;;;;;10.52;8.13;;;;;;;13.05;94.91;100061.13;5032399;28;20520;-65
2021/09/19 03:20:07;;;;;;;10.52;8.77;;;;;;;13.10;93.70;100059.66;5045737;28;20071;-65
2021/09/19 03:22:33;;;;;;;10.07;8.65;;;;;;;13.10;94.16;100070.41;5043963;28;20040;-65
2021/09/19 03:24:58;;;;;;;12.00;9.45;;;;;;;13.05;94.31;100066.50;5042509;28;20030;-66
2021/09/19 03:27:24;;;;;;;10.00;8.82;;;;;;;13.08;94.16;100069.75;5032201;28;20385;-64
2021/09/19 03:29:49;;;;;;;12.23;9.50;;;;;;;13.02;93.97;100056.91;5021546;28;20091;-65
2021/09/19 03:32:15;;;;;;;16.35;10.27;;;;;;;13.04;93.73;100064.84;5030186;28;20488;-65
2021/09/19 03:34:40;;;;;;;15.00;9.95;;;;;;;13.02;93.41;100066.81;5037551;28;20033;-66
2021/09/19 03:37:06;;;;;;;13.52;9.68;;;;;;;12.97;94.24;100064.56;5042353;28;20050;-66
2021/09/19 03:39:32;;;;;;;13.77;10.52;;;;;;;12.91;94.53;100051.75;5028651;28;20128;-66
2021/09/19 03:41:57;;;;;;;12.50;9.43;;;;;;;12.98;93.83;100068.97;5021716;28;20033;-66
2021/09/19 03:44:23;;;;;;;12.48;9.57;;;;;;;12.99;93.91;100065.28;5039761;28;20068;-61
2021/09/19 03:46:48;;;;;;;14.05;9.73;;;;;;;12.93;94.35;100063.19;5042886;28;20029;-65
2021/09/19 03:49:14;;;;;;;10.98;9.10;;;;;;;12.87;94.15;100055.72;5013483;28;20087;-65
2021/09/19 03:51:40;;;;;;;14.98;9.38;;;;;;;12.92;94.26;100074.13;5029083;28;20091;-65
2021/09/19 03:54:05;;;;;;;13.60;9.52;;;;;;;12.90;94.86;100078.81;5051477;28;20373;-65
2021/09/19 03:56:30;;;;;;;15.63;9.32;;;;;;;12.89;94.21;100066.34;5037904;28;20645;-65
2021/09/19 03:58:56;;;;;;;12.00;9.75;;;;;;;12.88;94.70;100073.59;5045033;28;20056;-65
2021/09/19 04:01:22;;;;;;;12.98;10.25;;;;;;;12.86;94.98;100077.41;5018834;28;20065;-65
2021/09/19 04:03:48;;;;;;;12.98;10.75;;;;;;;12.85;96.21;100079.28;5042696;28;20029;-64
2021/09/19 04:06:13;;;;;;;11.73;9.32;;;;;;;12.83;95.87;100080.44;5023073;28;20095;-65
2021/09/19 04:08:39;;;;;;;12.70;9.77;;;;;;;12.81;95.19;100074.38;5036908;28;20032;-65
2021/09/19 04:11:04;;;;;;;12.45;10.07;;;;;;;12.80;94.93;100076.19;5033088;28;20291;-65
2021/09/19 04:13:30;;;;;;;12.02;10.13;;;;;;;12.84;94.54;100079.44;5038288;28;20028;-64
2021/09/19 04:15:55;;;;;;;14.23;10.32;;;;;;;12.84;95.13;100090.22;5019752;28;20033;-66
2021/09/19 04:18:20;;;;;;;12.55;9.55;;;;;;;12.83;94.84;100083.13;5021256;28;20031;-65
2021/09/19 04:20:46;;;;;;;12.88;9.75;;;;;;;12.80;95.10;100084.28;5014022;28;20656;-66
2021/09/19 04:23:12;;;;;;;17.00;10.65;;;;;;;12.79;95.21;100084.44;5042744;28;20480;-66
2021/09/19 04:25:37;;;;;;;14.40;11.07;;;;;;;12.72;95.18;100080.66;5035026;28;20071;-66
2021/09/19 04:28:03;;;;;;;13.18;10.35;;;;;;;12.81;95.02;100095.91;5014832;28;20025;-65
2021/09/19 04:30:29;;;;;;;13.23;10.07;;;;;;;12.82;94.37;100100.28;5028406;28;20469;-65
2021/09/19 04:32:54;;;;;;;14.65;10.70;;;;;;;12.83;94.01;100093.91;5039790;28;20028;-65
2021/09/19 04:35:20;;;;;;;14.75;10.65;;;;;;;12.79;94.46;100089.81;5043910;28;20029;-65
2021/09/19 04:37:45;;;;;;;14.32;11.00;;;;;;;12.83;94.19;100093.91;5023016;28;20135;-65
2021/09/19 04:40:11;;;;;;;13.63;10.18;;;;;;;12.79;93.81;100087.13;5034222;28;20029;-65
2021/09/19 04:42:37;;;;;;;14.02;10.57;;;;;;;12.82;94.58;100095.75;5040432;28;20120;-65
2021/09/19 04:45:05;;;;;;;14.07;10.45;;;;;;;12.82;94.64;100097.56;5040092;28;20083;-66
2021/09/19 04:47:30;;;;;;;17.95;11.43;;;;;;;12.83;93.69;100100.13;5039708;28;20100;-65
2021/09/19 04:49:56;;;;;;;13.60;9.65;;;;;;;12.81;93.94;100095.91;5031055;28;20156;-65
2021/09/19 04:52:21;;;;;;;12.50;10.05;;;;;;;12.82;94.19;100098.44;5034138;28;20392;-65
2021/09/19 04:54:46;;;;;;;12.18;9.45;;;;;;;12.86;94.31;100104.34;5039506;28;20060;-65
2021/09/19 04:57:12;;;;;;;15.77;10.30;;;;;;;12.85;94.02;100103.50;5040098;28;20020;-65
2021/09/19 04:59:37;;;;;;;11.75;9.48;;;;;;;12.90;94.63;100108.44;5044161;28;20025;-66
2021/09/19 05:02:03;;;;;;;14.52;9.77;;;;;;;12.94;94.37;100115.19;5038407;28;20431;-65
2021/09/19 05:04:29;;;;;;;10.95;9.27;;;;;;;12.97;93.90;100120.28;5021152;28;20030;-65
2021/09/19 05:06:54;;;;;;;12.68;9.50;;;;;;;12.91;94.33;100120.88;5017524;28;20064;-65
2021/09/19 05:09:20;;;;;;;12.80;9.63;;;;;;;12.95;93.88;100116.88;5029869;28;20034;-65
2021/09/19 05:11:45;;;;;;;10.73;9.00;;;;;;;12.94;93.99;100112.50;5038132;28;20029;-66
2021/09/19 05:14:11;;;;;;;11.15;9.23;;;;;;;13.01;94.26;100114.47;5034025;28;20028;-65
2021/09/19 05:16:38;;;;;;;11.63;9.55;;;;;;;13.01;93.57;100119.84;5029464;28;20033;-65
2021/09/19 05:19:04;;;;;;;10.88;8.15;;;;;;;13.01;94.36;100117.16;5014484;28;20032;-65
2021/09/19 05:21:29;;;;;;;11.27;8.48;;;;;;;13.08;94.25;100125.44;5034873;28;20396;-65
2021/09/19 05:23:55;;;;;;;11.00;8.85;;;;;;;13.14;93.24;100114.03;5036910;28;20032;-65
2021/09/19 05:26:20;;;;;;;10.02;8.20;;;;;;;13.10;94.06;100124.28;5030273;28;20032;-65
2021/09/19 05:28:46;;;;;;;10.73;8.02;;;;;;;13.15;94.09;100130.06;5028853;28;20488;-65
2021/09/19 05:31:12;;;;;;;10.98;8.38;;;;;;;13.19;93.74;100122.53;5019002;28;20029;-66
2021/09/19 05:33:39;;;;;;;11.48;9.02;;;;;;;13.20;94.53;100129.59;5031279;28;20026;-66
2021/09/19 05:36:04;;;;;;;12.43;9.43;;;;;;;13.25;94.05;100125.41;5029666;28;20475;-66
2021/09/19 05:38:30;;;;;;;10.65;8.77;;;;;;;13.28;93.83;100129.63;5038930;28;20116;-66
2021/09/19 05:40:56;;;;;;;13.07;8.70;;;;;;;13.31;94.04;100122.09;5033689;28;20036;-65
2021/09/19 05:43:21;;;;;;;11.02;8.27;;;;;;;13.37;94.56;100126.88;5031190;28;20055;-66
2021/09/19 05:45:47;;;;;;;10.50;8.52;;;;;;;13.40;94.34;100128.41;5036413;28;20490;-66
2021/09/19 05:48:12;;;;;;;12.88;9.13;;;;;;;13.47;93.71;100118.66;5008660;28;20048;-67
2021/09/19 05:50:38;;;;;;;12.27;8.65;;;;;;;13.61;93.07;100120.81;5033930;28;20028;-67
2021/09/19 05:53:03;;;;;;;9.13;7.95;;;;;;;13.65;93.25;100122.19;5041316;28;20039;-67
2021/09/19 05:55:29;;;;;;;9.55;8.00;;;;;;;13.74;93.23;100118.53;5047364;28;20036;-67
2021/09/19 05:57:54;;;;;;;12.32;7.97;;;;;;;13.80;93.14;100112.47;5028173;28;20087;-67
2021/09/19 06:00:20;;;;;;;10.30;8.30;;;;;;;13.98;91.63;100105.16;5038967;28;20037;-67
2021/09/19 06:02:45;;;;;;;8.43;7.25;;;;;;;14.23;90.35;100115.09;5029034;28;20033;-63
2021/09/19 06:05:10;;;;;;;12.52;7.63;;;;;;;14.26;90.68;100114.78;5029759;28;20037;-66
2021/09/19 06:07:37;;;;;;;10.02;7.85;;;;;;;14.39;89.71;100123.25;5031542;28;20124;-67
2021/09/19 06:10:04;;;;;;;11.02;7.60;;;;;;;14.58;88.31;100122.13;5030247;28;20079;-67
2021/09/19 06:12:29;;;;;;;9.23;7.40;;;;;;;14.63;88.74;100107.09;5033720;28;20468;-67
2021/09/19 06:14:55;;;;;;;7.82;7.07;;;;;;;14.70;88.19;100105.44;5032893;28;20029;-65
2021/09/19 06:17:21;;;;;;;10.23;7.95;;;;;;;14.81;88.38;100105.13;5006496;28;21355;-66
2021/09/19 06:19:50;;;;;;;7.85;7.03;;;;;;;15.00;87.51;100104.78;5032593;28;20033;-66
2021/09/19 06:22:16;;;;;;;11.52;8.13;;;;;;;15.29;85.01;100112.41;5031446;28;20040;-66
2021/09/19 06:24:42;;;;;;;12.35;8.90;;;;;;;15.46;84.25;100104.16;5036320;28;20171;-66
2021/09/19 06:27:08;;;;;;;10.70;8.68;;;;;;;15.55;84.23;100108.50;5037100;28;20028;-65
2021/09/19 06:29:33;;;;;;;10.20;7.93;;;;;;;15.73;82.72;100103.75;5042065;28;20040;-62
2021/09/19 06:31:59;;;;;;;14.30;8.15;;;;;;;16.00;81.23;100102.50;5048272;28;20037;-63
2021/09/19 06:34:25;;;;;;;9.50;7.75;;;;;;;16.06;81.26;100090.13;5048575;28;20033;-63
2021/09/19 06:36:50;;;;;;;9.93;7.63;;;;;;;16.31;79.39;100094.41;5036956;28;20049;-63
2021/09/19 06:39:16;;;;;;;9.55;8.20;;;;;;;16.49;77.40;100089.59;5009933;28;20033;-63
2021/09/19 06:41:42;;;;;;;9.50;7.28;;;;;;;16.58;77.93;100092.09;5030891;28;20030;-63
2021/09/19 06:44:07;;;;;;;11.30;7.63;;;;;;;16.74;77.45;100092.00;5044511;28;20095;-63
2021/09/19 06:46:33;;;;;;;8.18;6.63;;;;;;;16.93;76.63;100098.81;5048962;28;20070;-63
2021/09/19 06:49:00;;;;;;;9.38;6.72;;;;;;;17.13;74.99;100106.28;5032196;28;20418;-62
2021/09/19 06:51:26;;;;;;;11.15;7.18;;;;;;;17.29;73.40;100092.56;5024036;28;20084;-63
2021/09/19 06:53:52;;;;;;;8.40;6.70;;;;;;;17.51;71.74;100104.44;5046804;28;20033;-63
2021/09/19 06:56:18;;;;;;;9.20;6.55;;;;;;;17.65;71.16;100106.34;5050694;28;20035;-62
2021/09/19 06:58:44;;;;;;;8.98;6.20;;;;;;;17.78;71.30;100111.97;5024611;28;20040;-62
2021/09/19 07:01:09;;;;;;;6.45;5.85;;;;;;;17.86;70.36;100101.00;5038195;28;20032;-62
2021/09/19 07:03:35;;;;;;;7.22;6.15;;;;;;;18.01;69.19;100107.28;5050804;28;20060;-63
2021/09/19 07:06:01;;;;;;;9.18;6.07;;;;;;;18.19;68.58;100109.63;5033750;28;20039;-61
2021/09/19 07:08:27;;;;;;;7.72;5.35;;;;;;;18.29;68.92;100111.03;5048136;28;20115;-62
2021/09/19 07:10:53;;;;;;;6.95;5.95;;;;;;;18.49;67.39;100108.59;5029791;28;20037;-62
2021/09/19 07:13:20;;;;;;;5.75;4.88;;;;;;;18.65;66.50;100111.94;5033720;28;20496;-63
2021/09/19 07:15:49;;;;;;;6.95;5.10;;;;;;;18.83;66.09;100120.47;5033473;28;20029;-64
2021/09/19 07:18:15;;;;;;;5.40;4.90;;;;;;;19.05;64.77;100115.91;5042358;28;20481;-62
2021/09/19 07:20:40;;;;;;;6.55;5.20;;;;;;;19.18;64.19;100127.75;5031397;28;20438;-63
2021/09/19 07:23:06;;;;;;;7.03;5.00;;;;;;;19.38;63.22;100114.38;5043872;28;20025;-63
2021/09/19 07:25:31;;;;;;;5.55;4.60;;;;;;;19.43;63.20;100111.91;5048957;28;20110;-64
2021/09/19 07:27:57;;;;;;;4.93;4.43;;;;;;;19.56;62.13;100107.41;5031173;28;20032;-62
2021/09/19 07:30:23;;;;;;;5.55;4.90;;;;;;;19.71;61.59;100105.47;5049588;28;20032;-63
2021/09/19 07:32:49;;;;;;;4.80;4.40;;;;;;;19.78;60.96;100102.75;5050841;28;20032;-63
2021/09/19 07:35:14;;;;;;;4.57;4.18;;;;;;;19.88;60.86;100106.81;5032496;28;20021;-66
2021/09/19 07:37:40;;;;;;;4.28;3.88;;;;;;;20.02;60.73;100105.00;5013807;28;20500;-66
2021/09/19 07:40:06;;;;;;;5.50;4.38;;;;;;;20.21;60.35;100098.03;5030845;28;20041;-66
2021/09/19 07:42:32;;;;;;;3.95;3.55;;;;;;;20.38;60.58;100099.38;5013249;28;20029;-65
2021/09/19 07:44:58;;;;;;;8.25;4.25;;;;;;;20.95;57.80;100094.34;5012883;28;20033;-66
2021/09/19 07:47:26;;;;;;;6.38;3.67;;;;;;;21.40;56.69;100101.75;5031892;28;20025;-66
2021/09/19 07:49:51;;;;;;;5.90;3.85;;;;;;;22.23;54.54;100096.41;5030980;28;20032;-66
2021/09/19 07:52:18;;;;;;;4.88;3.58;;;;;;;23.29;51.37;100096.56;5015594;28;20026;-66
2021/09/19 07:54:44;;;;;;;7.88;3.40;;;;;;;24.30;48.38;100096.03;5033289;28;20083;-66
2021/09/19 07:57:09;;;;;;;3.63;3.15;;;;;;;25.33;45.51;100083.91;5030735;28;20033;-65
2021/09/19 07:59:35;;;;;;;2.90;2.60;;;;;;;26.80;42.25;100081.56;5030055;28;20064;-65
2021/09/19 08:02:00;;;;;;;3.75;2.55;;;;;;;27.84;39.86;100068.00;5014387;28;20044;-66
2021/09/19 08:04:26;;;;;;;4.53;2.63;;;;;;;28.71;38.25;100068.97;5030699;28;20021;-65
2021/09/19 08:06:51;;;;;;;5.90;2.28;;;;;;;29.65;36.40;100073.81;5030676;28;20030;-66
2021/09/19 08:09:17;;;;;;;2.85;2.35;;;;;;;30.55;34.57;100071.63;5048587;28;20029;-66
2021/09/19 08:11:42;;;;;;;4.82;2.33;;;;;;;31.17;33.77;100068.78;5046557;28;20033;-66
2021/09/19 08:14:08;;;;;;;5.97;2.88;;;;;;;31.82;32.55;100062.50;5030346;28;20029;-66
2021/09/19 08:16:42;;;;;;;5.85;2.38;;;;;;;32.34;31.71;100058.22;5035727;28;20094;-66
2021/09/19 08:19:09;;;;;;;2.85;2.45;;;;;;;32.71;31.10;100063.34;5032141;28;20032;-67
2021/09/19 08:21:36;;;;;;;3.15;2.80;;;;;;;33.22;30.26;100061.13;5039827;28;20567;-65
2021/09/19 08:24:07;;;;;;;5.45;2.78;;;;;;;33.59;30.15;100061.44;5047862;28;20508;-65
2021/09/19 08:26:32;;;;;;;3.70;2.53;;;;;;;34.03;28.97;100059.34;5049133;28;20798;-67
2021/09/19 08:28:58;;;;;;;2.75;1.95;;;;;;;34.46;28.54;100061.09;5049780;28;20116;-66
2021/09/19 08:31:24;;;;;;;2.88;2.13;;;;;;;34.92;27.62;100072.53;5045008;28;20037;-66
2021/09/19 08:33:49;;;;;;;2.78;2.00;;;;;;;35.04;27.74;100070.94;5045375;28;20024;-65
2021/09/19 08:36:15;;;;;;;1.90;1.75;;;;;;;35.27;27.08;100063.63;5037730;28;20443;-65
2021/09/19 08:38:42;;;;;;;2.25;2.05;;;;;;;35.42;27.41;100069.00;5024737;28;20068;-66
2021/09/19 08:41:07;;;;;;;1.77;1.67;;;;;;;35.77;26.80;100065.59;5031207;28;20582;-67
2021/09/19 08:43:33;;;;;;;1.83;1.70;;;;;;;35.96;26.45;100063.63;5011350;28;20022;-66
2021/09/19 08:45:58;;;;;;;2.53;1.80;;;;;;;36.18;26.10;100069.34;5029123;28;20103;-66
2021/09/19 08:48:25;;;;;;;4.00;1.90;;;;;;;36.50;25.68;100067.31;5029639;28;20021;-65
2021/09/19 08:50:53;;;;;;;1.73;1.58;;;;;;;36.70;25.08;100060.47;5021830;28;20025;-66
2021/09/19 08:53:19;;;;;;;4.50;1.45;;;;;;;37.06;24.59;100068.91;5048227;28;20032;-64
2021/09/19 08:55:45;;;;;;;1.73;1.55;;;;;;;36.89;24.95;100060.38;5048732;28;20104;-66
2021/09/19 08:58:11;;;;;;;3.00;1.38;;;;;;;36.62;24.94;100063.19;5033363;28;20025;-67
2021/09/19 09:00:44;;;;;;;1.45;1.10;;;;;;;36.42;25.36;100065.25;5047586;28;20033;-67
2021/09/19 09:03:14;;;;;;;2.03;1.42;;;;;;;36.38;25.26;100058.63;5047296;28;20059;-66
2021/09/19 09:05:40;;;;;;;2.15;1.70;;;;;;;36.32;25.31;100051.50;5049309;28;20058;-66
2021/09/19 09:08:08;;;;;;;4.35;1.92;;;;;;;36.39;25.44;100060.28;5031859;28;20393;-65
2021/09/19 09:10:39;;;;;;;1.77;1.40;;;;;;;36.41;25.36;100069.19;5043946;28;20480;-66
2021/09/19 09:13:17;;;;;;;4.38;1.30;;;;;;;36.78;24.54;100056.16;5049166;28;20128;-66
2021/09/19 09:15:50;;;;;;;4.88;1.70;;;;;;;35.86;25.78;100070.22;5033898;28;20427;-66
2021/09/19 09:18:37;;;;;;;4.68;1.30;;;;;;;34.95;26.88;100056.03;5041088;28;20028;-66
2021/09/19 09:21:08;;;;;;;4.18;1.13;;;;;;;34.32;27.44;100049.00;5043556;28;20165;-66
2021/09/19 09:23:35;;;;;;;4.35;1.40;;;;;;;33.49;28.62;100053.97;5042275;28;20061;-65
2021/09/19 09:26:31;;;;;;;1.67;1.52;;;;;;;32.19;30.00;100057.41;5048208;28;20491;-66
2021/09/19 09:29:06;;;;;;;1.40;1.30;;;;;;;31.36;31.73;100058.00;5008434;28;20417;-66
2021/09/19 09:31:33;;;;;;;4.10;1.80;;;;;;;30.33;33.40;100068.22;5020219;28;20132;-66
2021/09/19 09:34:07;;;;;;;2.08;1.60;;;;;;;29.60;34.17;100072.91;5046302;28;20036;-66
2021/09/19 09:36:54;;;;;;;1.50;1.40;;;;;;;28.98;35.03;100071.75;5041316;28;20147;-65
2021/09/19 09:39:33;;;;;;;1.60;1.50;;;;;;;28.53;35.58;100063.75;5038798;28;20033;-65
2021/09/19 09:42:19;;;;;;;4.72;1.77;;;;;;;28.09;36.78;100064.81;5048537;28;20276;-62
2021/09/19 09:44:49;;;;;;;3.33;2.40;;;;;;;27.64;37.60;100062.19;5037783;28;20492;-62
2021/09/19 09:47:17;;;;;;;4.03;1.98;;;;;;;27.13;39.16;100075.28;5040331;28;20028;-63
2021/09/19 09:49:53;;;;;;;4.03;2.00;;;;;;;27.26;38.59;100070.34;5046278;28;20438;-63
2021/09/19 09:52:22;;;;;;;2.67;1.85;;;;;;;26.94;38.95;100077.41;5029055;28;20080;-63
2021/09/19 09:55:00;;;;;;;1.70;1.60;;;;;;;26.49;39.75;100062.72;5028967;28;20484;-63
2021/09/19 09:57:43;;;;;;;4.90;1.65;;;;;;;26.23;40.71;100066.00;5041031;28;20116;-62
2021/09/19 10:00:14;;;;;;;3.08;1.55;;;;;;;26.06;41.25;100070.59;5029781;28;20362;-63
2021/09/19 10:02:42;;;;;;;2.60;1.85;;;;;;;26.08;40.60;100063.75;5045102;28;20484;-64
2021/09/19 10:05:09;;;;;;;4.90;1.52;;;;;;;25.69;41.33;100060.88;5015040;28;20040;-64
2021/09/19 10:07:38;;;;;;;1.70;1.60;;;;;;;25.61;41.54;100064.84;5035809;28;20040;-64
2021/09/19 10:10:06;;;;;;;3.83;1.60;;;;;;;25.49;41.68;100057.66;5045293;28;20029;-64
2021/09/19 10:12:32;;;;;;;3.42;2.00;;;;;;;25.27;42.19;100068.31;5048396;28;20041;-63
2021/09/19 10:14:58;;;;;;;4.22;1.80;;;;;;;25.08;42.52;100063.97;5030128;28;20488;-63
2021/09/19 10:17:24;;;;;;;1.95;1.75;;;;;;;24.94;42.88;100065.25;5047159;28;20025;-65
2021/09/19 10:19:51;;;;;;;2.10;1.90;;;;;;;24.94;42.59;100062.50;5048721;28;20455;-64
2021/09/19 10:22:27;;;;;;;2.10;1.50;;;;;;;24.60;43.48;100060.41;5046751;28;20033;-64
2021/09/19 10:24:53;;;;;;;1.85;1.50;;;;;;;24.53;44.01;100067.91;5030169;28;20036;-64
2021/09/19 10:27:24;;;;;;;2.90;2.28;;;;;;;24.50;44.20;100075.78;5032724;28;20360;-64
2021/09/19 10:29:58;;;;;;;3.95;1.60;;;;;;;24.34;44.62;100069.81;5051172;28;20033;-64
2021/09/19 10:32:44;;;;;;;3.95;1.80;;;;;;;24.14;45.15;100071.97;5052317;28;20051;-64
2021/09/19 10:35:29;;;;;;;1.90;1.80;;;;;;;24.02;45.18;100068.31;5029367;28;20046;-64
2021/09/19 10:38:00;;;;;;;4.05;2.20;;;;;;;23.84;45.62;100065.53;5045293;28;20067;-64
2021/09/19 10:40:35;;;;;;;1.85;1.73;;;;;;;23.79;45.64;100070.84;5045077;28;20025;-64
2021/09/19 10:43:06;;;;;;;2.55;2.10;;;;;;;23.84;44.94;100065.53;5050330;28;20033;-64
2021/09/19 10:45:43;;;;;;;2.75;2.10;;;;;;;23.56;45.80;100056.94;5052066;28;20023;-61
2021/09/19 10:48:29;;;;;;;3.20;1.90;;;;;;;23.59;46.10;100064.72;5032352;28;20032;-62
2021/09/19 10:51:12;;;;;;;2.00;1.90;;;;;;;23.51;45.91;100055.94;5048890;28;20044;-62
2021/09/19 10:53:46;;;;;;;3.03;1.83;;;;;;;23.41;45.82;100059.16;5037385;28;20041;-62
2021/09/19 10:56:11;;;;;;;2.78;2.13;;;;;;;23.29;46.52;100044.56;5031555;28;20404;-64
2021/09/19 10:58:39;;;;;;;4.40;2.00;;;;;;;23.31;46.12;100052.53;5046361;28;20029;-62
2021/09/19 11:01:25;;;;;;;1.40;1.30;;;;;;;23.26;46.32;100044.16;5047810;28;20108;-62
2021/09/19 11:04:00;;;;;;;2.85;1.50;;;;;;;23.24;45.82;100044.38;5051540;28;20060;-62
2021/09/19 11:06:31;;;;;;;2.03;1.83;;;;;;;23.23;46.32;100045.44;5049190;28;20112;-62
2021/09/19 11:08:59;;;;;;;1.52;1.40;;;;;;;23.24;46.39;100049.84;5048424;28;20017;-63
2021/09/19 11:11:27;;;;;;;2.15;1.73;;;;;;;23.32;45.08;100035.06;5051544;28;20083;-64
2021/09/19 11:13:55;;;;;;;2.00;1.77;;;;;;;23.26;45.44;100047.75;5049175;28;20086;-65
2021/09/19 11:16:29;;;;;;;1.27;1.17;;;;;;;23.20;45.93;100034.91;5031754;28;20044;-66
2021/09/19 11:18:59;;;;;;;;;;;;;;;23.23;47.19;100026.28;5047499;28;20037;-66
2021/09/19 11:21:25;;;;;;;2.05;1.58;;;;;;;23.28;46.78;100026.44;5043618;28;19953;-65